createdAt,value
2023-05-08T00:00:21.421Z,65.90
2023-05-08T00:01:21.424Z,64.29
2023-05-08T00:02:21.442Z,66.23
2023-05-08T00:03:21.499Z,67.35
2023-05-08T00:04:21.407Z,66.71
2023-05-08T00:05:21.363Z,65.42
2023-05-08T00:06:21.371Z,65.58
2023-05-08T00:07:21.368Z,68.96
2023-05-08T00:08:21.324Z,66.23
2023-05-08T00:09:21.327Z,62.20
2023-05-08T00:10:21.310Z,66.71
2023-05-08T00:11:21.342Z,68.00
2023-05-08T00:12:21.294Z,67.84
2023-05-08T00:13:21.372Z,66.55
2023-05-08T00:14:21.260Z,67.68
2023-05-08T00:15:21.271Z,69.29
2023-05-08T00:16:21.303Z,68.64
2023-05-08T00:17:21.270Z,67.35
2023-05-08T00:18:21.229Z,66.06
2023-05-08T00:19:21.236Z,70.09
2023-05-08T00:20:21.243Z,68.96
2023-05-08T00:21:21.211Z,66.06
2023-05-08T00:22:21.188Z,65.26
2023-05-08T00:23:21.187Z,67.84
2023-05-08T00:24:21.177Z,68.48
2023-05-08T00:25:21.185Z,65.90
2023-05-08T00:26:21.174Z,68.64
2023-05-08T00:27:21.162Z,68.48
2023-05-08T00:28:21.139Z,66.06
2023-05-08T00:29:21.153Z,65.58
2023-05-08T00:30:21.137Z,67.84
2023-05-08T00:31:21.103Z,67.84
2023-05-08T00:32:21.193Z,66.06
2023-05-08T00:33:21.114Z,67.51
2023-05-08T00:34:21.090Z,66.39
2023-05-08T00:35:21.101Z,67.51
2023-05-08T00:36:21.045Z,66.87
2023-05-08T00:37:21.038Z,68.48
2023-05-08T00:38:21.036Z,67.03
2023-05-08T00:39:21.047Z,67.19
2023-05-08T00:40:21.020Z,69.77
2023-05-08T00:41:21.013Z,65.74
2023-05-08T00:42:21.007Z,70.09
2023-05-08T00:43:21.080Z,64.61
2023-05-08T00:44:20.996Z,67.51
2023-05-08T00:45:20.971Z,70.25
2023-05-08T00:46:21.006Z,67.35
2023-05-08T00:47:20.981Z,66.06
2023-05-08T00:48:20.933Z,66.87
2023-05-08T00:49:20.951Z,62.36
2023-05-08T00:50:20.914Z,69.45
2023-05-08T00:51:20.905Z,70.42
2023-05-08T00:52:20.906Z,66.39
2023-05-08T00:53:20.893Z,63.16
2023-05-08T00:54:20.913Z,69.13
2023-05-08T00:55:20.860Z,67.68
2023-05-08T00:56:20.857Z,66.39
2023-05-08T00:57:20.882Z,66.23
2023-05-08T00:58:20.863Z,67.35
2023-05-08T00:59:20.817Z,67.68
2023-05-08T01:00:20.802Z,71.22
2023-05-08T01:01:20.839Z,70.90
2023-05-08T01:02:20.823Z,68.96
2023-05-08T01:03:20.880Z,68.96
2023-05-08T01:04:20.781Z,67.19
2023-05-08T01:05:20.763Z,68.00
2023-05-08T01:06:20.803Z,65.90
2023-05-08T01:07:20.764Z,69.61
2023-05-08T01:08:20.750Z,70.25
2023-05-08T01:09:20.720Z,66.87
2023-05-08T01:10:20.728Z,70.58
2023-05-08T01:11:20.736Z,67.51
2023-05-08T01:12:20.725Z,64.13
2023-05-08T01:13:20.776Z,69.13
2023-05-08T01:14:20.674Z,67.03
2023-05-08T01:15:20.665Z,67.19
2023-05-08T01:16:20.838Z,65.90
2023-05-08T01:17:20.666Z,67.68
2023-05-08T01:18:20.634Z,68.96
2023-05-08T01:19:20.620Z,67.03
2023-05-08T01:20:20.636Z,68.32
2023-05-08T01:21:20.627Z,68.00
2023-05-08T01:22:20.597Z,68.00
2023-05-08T01:23:20.584Z,66.71
2023-05-08T01:24:20.580Z,67.19
2023-05-08T01:25:20.592Z,69.45
2023-05-08T01:26:20.584Z,67.51
2023-05-08T01:27:20.561Z,67.51
2023-05-08T01:28:20.544Z,68.96
2023-05-08T01:29:20.528Z,68.00
2023-05-08T01:30:20.536Z,70.74
2023-05-08T01:31:20.505Z,69.77
2023-05-08T01:32:20.524Z,71.38
2023-05-08T01:33:20.612Z,67.03
2023-05-08T01:34:20.498Z,67.35
2023-05-08T01:35:20.490Z,68.96
2023-05-08T01:36:20.460Z,68.00
2023-05-08T01:37:20.455Z,67.84
2023-05-08T01:38:20.441Z,66.55
2023-05-08T01:39:20.442Z,67.84
2023-05-08T01:40:20.435Z,71.38
2023-05-08T01:41:20.415Z,70.25
2023-05-08T01:42:20.395Z,66.39
2023-05-08T01:43:20.386Z,72.03
2023-05-08T01:44:20.402Z,69.61
2023-05-08T01:45:20.373Z,67.03
2023-05-08T01:46:20.387Z,70.42
2023-05-08T01:47:20.350Z,69.45
2023-05-08T01:48:20.345Z,69.93
2023-05-08T01:49:20.352Z,68.16
2023-05-08T01:50:20.323Z,68.48
2023-05-08T01:51:20.313Z,67.03
2023-05-08T01:52:20.356Z,66.87
2023-05-08T01:53:20.314Z,69.29
2023-05-08T01:54:20.301Z,69.61
2023-05-08T01:55:20.293Z,66.39
2023-05-08T01:56:20.293Z,68.00
2023-05-08T01:57:20.266Z,68.48
2023-05-08T01:58:20.263Z,67.68
2023-05-08T01:59:20.229Z,68.80
2023-05-08T02:00:20.235Z,68.64
2023-05-08T02:01:20.254Z,68.32
2023-05-08T02:02:20.326Z,69.13
2023-05-08T02:03:20.304Z,69.13
2023-05-08T02:04:20.246Z,70.74
2023-05-08T02:05:20.185Z,68.64
2023-05-08T02:06:20.161Z,69.45
2023-05-08T02:07:20.179Z,69.29
2023-05-08T02:08:20.215Z,69.45
2023-05-08T02:09:20.132Z,67.51
2023-05-08T02:10:21.126Z,71.22
2023-05-08T02:11:20.128Z,72.51
2023-05-08T02:12:20.120Z,69.77
2023-05-08T02:13:20.220Z,68.96
2023-05-08T02:14:20.077Z,68.32
2023-05-08T02:15:20.076Z,65.26
2023-05-08T02:16:20.136Z,65.42
2023-05-08T02:17:20.061Z,68.96
2023-05-08T02:18:20.041Z,67.51
2023-05-08T02:19:20.032Z,68.96
2023-05-08T02:20:20.029Z,69.93
2023-05-08T02:21:20.039Z,68.80
2023-05-08T02:22:20.023Z,70.09
2023-05-08T02:23:19.997Z,69.61
2023-05-08T02:24:19.980Z,68.64
2023-05-08T02:25:19.987Z,69.13
2023-05-08T02:26:20.002Z,68.32
2023-05-08T02:27:19.957Z,69.61
2023-05-08T02:28:19.941Z,69.93
2023-05-08T02:29:19.928Z,70.25
2023-05-08T02:30:19.934Z,67.84
2023-05-08T02:31:19.936Z,70.58
2023-05-08T02:32:19.987Z,68.16
2023-05-08T02:33:19.884Z,69.13
2023-05-08T02:34:20.884Z,72.35
2023-05-08T02:35:19.907Z,68.16
2023-05-08T02:36:19.865Z,71.06
2023-05-08T02:37:19.845Z,70.25
2023-05-08T02:38:19.854Z,68.96
2023-05-08T02:39:19.841Z,68.96
2023-05-08T02:40:19.879Z,70.09
2023-05-08T02:41:19.822Z,70.25
2023-05-08T02:42:19.814Z,71.38
2023-05-08T02:43:19.790Z,71.87
2023-05-08T02:44:19.814Z,71.22
2023-05-08T02:45:19.806Z,70.74
2023-05-08T02:46:19.834Z,70.90
2023-05-08T02:47:19.752Z,71.22
2023-05-08T02:48:19.742Z,71.54
2023-05-08T02:49:19.749Z,70.90
2023-05-08T02:50:19.731Z,71.38
2023-05-08T02:51:19.717Z,72.99
2023-05-08T02:52:19.716Z,72.03
2023-05-08T02:53:19.681Z,69.61
2023-05-08T02:54:19.706Z,69.93
2023-05-08T02:55:19.672Z,70.58
2023-05-08T02:56:19.670Z,69.93
2023-05-08T02:57:19.708Z,70.90
2023-05-08T02:58:19.657Z,72.03
2023-05-08T02:59:45.546Z,71.38
2023-05-08T03:00:19.616Z,69.45
2023-05-08T03:01:19.648Z,71.54
2023-05-08T03:02:19.643Z,73.64
2023-05-08T03:03:19.739Z,73.15
2023-05-08T03:04:19.619Z,73.64
2023-05-08T03:05:19.572Z,73.96
2023-05-08T03:06:19.571Z,72.99
2023-05-08T03:07:19.551Z,73.48
2023-05-08T03:08:19.539Z,69.61
2023-05-08T03:09:19.547Z,72.67
2023-05-08T03:10:19.524Z,69.77
2023-05-08T03:11:19.507Z,70.42
2023-05-08T03:12:19.496Z,71.06
2023-05-08T03:13:19.562Z,71.38
2023-05-08T03:14:19.525Z,72.19
2023-05-08T03:15:19.475Z,69.61
2023-05-08T03:16:19.553Z,71.06
2023-05-08T03:17:19.444Z,71.22
2023-05-08T03:18:19.469Z,70.42
2023-05-08T03:19:20.791Z,69.45
2023-05-08T03:20:19.424Z,70.42
2023-05-08T03:21:19.421Z,70.09
2023-05-08T03:22:19.401Z,69.13
2023-05-08T03:23:19.427Z,71.38
2023-05-08T03:24:19.374Z,71.38
2023-05-08T03:25:19.369Z,72.51
2023-05-08T03:26:19.384Z,71.38
2023-05-08T03:27:19.377Z,71.70
2023-05-08T03:28:19.333Z,70.90
2023-05-08T03:29:19.325Z,69.93
2023-05-08T03:30:19.318Z,70.58
2023-05-08T03:31:19.364Z,71.38
2023-05-08T03:32:19.303Z,71.54
2023-05-08T03:33:19.284Z,70.90
2023-05-08T03:34:19.279Z,69.29
2023-05-08T03:35:19.281Z,70.58
2023-05-08T03:36:19.303Z,70.58
2023-05-08T03:37:19.256Z,71.87
2023-05-08T03:38:19.242Z,70.09
2023-05-08T03:39:19.228Z,71.70
2023-05-08T03:40:19.256Z,74.93
2023-05-08T03:41:19.244Z,70.42
2023-05-08T03:42:19.198Z,72.03
2023-05-08T03:43:19.201Z,72.67
2023-05-08T03:44:19.256Z,72.03
2023-05-08T03:45:19.196Z,72.51
2023-05-08T03:46:19.170Z,73.96
2023-05-08T03:47:19.163Z,72.99
2023-05-08T03:48:19.162Z,72.51
2023-05-08T03:49:19.140Z,72.51
2023-05-08T03:50:19.156Z,72.83
2023-05-08T03:51:19.131Z,71.54
2023-05-08T03:52:19.098Z,72.99
2023-05-08T03:53:19.200Z,70.90
2023-05-08T03:54:19.117Z,72.83
2023-05-08T03:55:19.093Z,72.67
2023-05-08T03:56:19.060Z,76.38
2023-05-08T03:57:19.061Z,74.44
2023-05-08T03:58:19.048Z,72.67
2023-05-08T03:59:19.060Z,71.54
2023-05-08T04:00:19.162Z,72.19
2023-05-08T04:01:19.039Z,72.19
2023-05-08T04:02:19.043Z,71.54
2023-05-08T04:03:19.106Z,70.42
2023-05-08T04:04:19.177Z,71.70
2023-05-08T04:05:19.014Z,72.67
2023-05-08T04:06:18.989Z,71.87
2023-05-08T04:07:18.957Z,73.15
2023-05-08T04:08:19.047Z,70.25
2023-05-08T04:09:18.976Z,70.74
2023-05-08T04:10:18.939Z,71.54
2023-05-08T04:11:18.922Z,72.35
2023-05-08T04:12:18.927Z,72.67
2023-05-08T04:13:19.000Z,72.83
2023-05-08T04:14:18.906Z,71.22
2023-05-08T04:15:18.901Z,71.87
2023-05-08T04:16:18.925Z,73.96
2023-05-08T04:17:18.918Z,71.54
2023-05-08T04:18:18.897Z,70.90
2023-05-08T04:19:18.858Z,70.90
2023-05-08T04:20:18.853Z,72.35
2023-05-08T04:21:18.837Z,70.90
2023-05-08T04:22:18.834Z,74.12
2023-05-08T04:23:18.817Z,72.19
2023-05-08T04:24:18.798Z,73.15
2023-05-08T04:25:18.811Z,71.87
2023-05-08T04:26:18.795Z,71.87
2023-05-08T04:27:18.778Z,71.54
2023-05-08T04:28:18.767Z,72.35
2023-05-08T04:29:18.769Z,72.03
2023-05-08T04:30:18.747Z,73.64
2023-05-08T04:31:18.861Z,71.54
2023-05-08T04:32:18.790Z,71.87
2023-05-08T04:33:18.782Z,71.22
2023-05-08T04:34:18.711Z,72.03
2023-05-08T04:35:18.754Z,71.54
2023-05-08T04:36:18.709Z,71.22
2023-05-08T04:37:18.673Z,75.41
2023-05-08T04:38:18.679Z,71.70
2023-05-08T04:39:18.650Z,71.54
2023-05-08T04:40:18.664Z,71.22
2023-05-08T04:41:18.696Z,71.70
2023-05-08T04:42:18.640Z,70.25
2023-05-08T04:43:18.620Z,71.06
2023-05-08T04:44:18.607Z,71.06
2023-05-08T04:45:18.628Z,71.38
2023-05-08T04:46:18.626Z,71.06
2023-05-08T04:47:18.598Z,72.19
2023-05-08T04:48:18.628Z,71.70
2023-05-08T04:49:18.563Z,72.67
2023-05-08T04:50:18.579Z,71.06
2023-05-08T04:51:18.554Z,69.93
2023-05-08T04:52:18.530Z,70.58
2023-05-08T04:53:18.523Z,71.06
2023-05-08T04:54:18.516Z,71.70
2023-05-08T04:55:18.547Z,72.35
2023-05-08T04:56:18.497Z,71.06
2023-05-08T04:57:18.483Z,70.90
2023-05-08T04:58:18.486Z,71.06
2023-05-08T04:59:18.474Z,72.03
2023-05-08T05:00:18.496Z,71.87
2023-05-08T05:01:18.454Z,70.90
2023-05-08T05:02:18.501Z,69.13
2023-05-08T05:03:18.485Z,70.09
2023-05-08T05:04:18.440Z,70.42
2023-05-08T05:05:18.414Z,71.38
2023-05-08T05:06:18.394Z,72.51
2023-05-08T05:07:18.388Z,71.22
2023-05-08T05:08:18.372Z,69.29
2023-05-08T05:09:18.378Z,69.93
2023-05-08T05:10:18.354Z,70.25
2023-05-08T05:11:18.357Z,70.42
2023-05-08T05:12:18.333Z,70.09
2023-05-08T05:13:18.345Z,69.77
2023-05-08T05:14:18.342Z,70.09
2023-05-08T05:15:18.308Z,70.25
2023-05-08T05:16:18.350Z,68.32
2023-05-08T05:17:18.282Z,71.38
2023-05-08T05:18:18.320Z,68.16
2023-05-08T05:19:18.264Z,69.77
2023-05-08T05:20:18.263Z,70.58
2023-05-08T05:21:18.255Z,69.61
2023-05-08T05:22:18.236Z,68.96
2023-05-08T05:23:18.285Z,68.96
2023-05-08T05:24:18.206Z,72.03
2023-05-08T05:25:18.209Z,69.13
2023-05-08T05:26:18.192Z,68.96
2023-05-08T05:27:20.646Z,69.61
2023-05-08T05:28:18.200Z,67.51
2023-05-08T05:29:18.171Z,69.13
2023-05-08T05:30:18.153Z,69.29
2023-05-08T05:31:18.180Z,69.61
2023-05-08T05:32:18.180Z,69.13
2023-05-08T05:33:18.148Z,68.16
2023-05-08T05:34:18.108Z,69.45
2023-05-08T05:35:18.102Z,69.93
2023-05-08T05:36:18.093Z,68.64
2023-05-08T05:37:18.098Z,68.48
2023-05-08T05:38:18.068Z,68.96
2023-05-08T05:39:18.062Z,69.45
2023-05-08T05:40:18.058Z,68.16
2023-05-08T05:41:18.038Z,70.90
2023-05-08T05:42:18.104Z,70.42
2023-05-08T05:43:18.021Z,69.77
2023-05-08T05:44:18.028Z,68.32
2023-05-08T05:45:18.010Z,70.09
2023-05-08T05:46:18.095Z,68.80
2023-05-08T05:47:18.018Z,68.16
2023-05-08T05:48:17.971Z,69.45
2023-05-08T05:49:17.963Z,70.58
2023-05-08T05:50:17.949Z,68.96
2023-05-08T05:51:17.986Z,70.74
2023-05-08T05:52:17.937Z,68.16
2023-05-08T05:53:17.917Z,68.48
2023-05-08T05:54:17.968Z,68.96
2023-05-08T05:55:17.904Z,69.45
2023-05-08T05:56:17.905Z,69.77
2023-05-08T05:57:17.920Z,69.45
2023-05-08T05:58:17.885Z,69.45
2023-05-08T05:59:17.857Z,70.90
2023-05-08T06:00:17.862Z,68.48
2023-05-08T06:01:17.850Z,69.29
2023-05-08T06:02:17.904Z,68.00
2023-05-08T06:03:17.870Z,69.93
2023-05-08T06:04:17.880Z,68.00
2023-05-08T06:05:17.814Z,72.19
2023-05-08T06:06:17.785Z,70.25
2023-05-08T06:07:17.787Z,68.80
2023-05-08T06:08:17.825Z,66.87
2023-05-08T06:09:17.756Z,68.32
2023-05-08T06:10:17.759Z,69.45
2023-05-08T06:11:17.743Z,68.96
2023-05-08T06:12:17.725Z,70.25
2023-05-08T06:13:17.738Z,68.32
2023-05-08T06:14:17.736Z,67.84
2023-05-08T06:15:17.715Z,66.87
2023-05-08T06:16:17.727Z,68.64
2023-05-08T06:17:17.677Z,68.48
2023-05-08T06:18:17.667Z,69.77
2023-05-08T06:19:17.674Z,68.48
2023-05-08T06:20:17.647Z,70.09
2023-05-08T06:21:17.636Z,69.29
2023-05-08T06:22:17.639Z,67.03
2023-05-08T06:23:17.643Z,69.93
2023-05-08T06:24:17.678Z,69.13
2023-05-08T06:25:17.615Z,69.13
2023-05-08T06:26:17.585Z,68.96
2023-05-08T06:27:17.574Z,68.96
2023-05-08T06:28:17.604Z,68.16
2023-05-08T06:29:17.557Z,68.96
2023-05-08T06:30:17.548Z,68.96
2023-05-08T06:31:17.646Z,70.09
2023-05-08T06:32:17.595Z,69.61
2023-05-08T06:33:17.530Z,66.87
2023-05-08T06:34:17.512Z,67.19
2023-05-08T06:35:17.499Z,67.51
2023-05-08T06:36:17.518Z,69.77
2023-05-08T06:37:17.495Z,67.84
2023-05-08T06:38:17.480Z,66.55
2023-05-08T06:39:17.464Z,67.19
2023-05-08T06:40:17.484Z,67.51
2023-05-08T06:41:17.454Z,67.03
2023-05-08T06:42:17.445Z,67.35
2023-05-08T06:43:17.440Z,74.44
2023-05-08T06:44:17.446Z,68.32
2023-05-08T06:45:17.406Z,68.48
2023-05-08T06:46:17.476Z,68.48
2023-05-08T06:47:17.414Z,69.13
2023-05-08T06:48:17.411Z,68.48
2023-05-08T06:49:17.359Z,74.44
2023-05-08T06:50:17.351Z,69.29
2023-05-08T06:51:17.365Z,71.87
2023-05-08T06:52:17.359Z,67.68
2023-05-08T06:53:17.325Z,68.00
2023-05-08T06:54:17.330Z,69.93
2023-05-08T06:55:17.321Z,68.00
2023-05-08T06:56:17.342Z,67.03
2023-05-08T06:57:17.300Z,67.68
2023-05-08T06:58:17.280Z,68.32
2023-05-08T06:59:17.277Z,65.90
2023-05-08T07:00:17.316Z,67.19
2023-05-08T07:01:17.320Z,67.35
2023-05-08T07:02:17.256Z,67.19
2023-05-08T07:03:17.229Z,68.00
2023-05-08T07:04:17.313Z,67.68
2023-05-08T07:05:17.739Z,68.96
2023-05-08T07:06:17.217Z,67.84
2023-05-08T07:07:17.191Z,65.74
2023-05-08T07:08:17.200Z,63.81
2023-05-08T07:09:17.190Z,68.16
2023-05-08T07:10:17.169Z,64.78
2023-05-08T07:11:17.158Z,69.13
2023-05-08T07:12:17.138Z,67.19
2023-05-08T07:13:17.190Z,66.23
2023-05-08T07:14:17.136Z,67.03
2023-05-08T07:15:25.489Z,67.51
2023-05-08T07:16:19.231Z,68.00
2023-05-08T07:17:17.095Z,66.55
2023-05-08T07:18:17.091Z,67.84
2023-05-08T07:19:17.084Z,68.48
2023-05-08T07:20:17.123Z,70.09
2023-05-08T07:21:17.060Z,66.55
2023-05-08T07:22:17.081Z,68.32
2023-05-08T07:23:17.035Z,66.23
2023-05-08T07:24:17.043Z,65.26
2023-05-08T07:25:17.015Z,65.58
2023-05-08T07:26:17.028Z,68.00
2023-05-08T07:27:16.998Z,65.26
2023-05-08T07:28:17.052Z,65.58
2023-05-08T07:29:17.010Z,66.23
2023-05-08T07:30:16.984Z,67.84
2023-05-08T07:31:16.971Z,67.68
2023-05-08T07:32:16.954Z,66.23
2023-05-08T07:33:16.966Z,65.90
2023-05-08T07:34:16.926Z,68.00
2023-05-08T07:35:17.068Z,65.26
2023-05-08T07:36:16.912Z,65.74
2023-05-08T07:37:16.922Z,65.74
2023-05-08T07:38:16.898Z,67.19
2023-05-08T07:39:16.885Z,66.87
2023-05-08T07:40:16.876Z,68.00
2023-05-08T07:41:16.936Z,67.51
2023-05-08T07:42:16.888Z,67.03
2023-05-08T07:43:16.854Z,65.90
2023-05-08T07:44:16.827Z,66.06
2023-05-08T07:45:16.969Z,66.23
2023-05-08T07:46:16.924Z,68.48
2023-05-08T07:47:16.952Z,65.58
2023-05-08T07:48:16.800Z,69.13
2023-05-08T07:49:16.798Z,69.93
2023-05-08T07:50:16.770Z,68.16
2023-05-08T07:51:16.769Z,66.55
2023-05-08T07:52:16.797Z,68.00
2023-05-08T07:53:16.739Z,68.16
2023-05-08T07:54:16.729Z,66.55
2023-05-08T07:55:16.724Z,66.87
2023-05-08T07:56:16.701Z,67.03
2023-05-08T07:57:16.710Z,64.78
2023-05-08T07:58:16.683Z,64.29
2023-05-08T07:59:16.682Z,64.78
2023-05-08T08:00:16.795Z,67.84
2023-05-08T08:01:16.666Z,69.61
2023-05-08T08:02:16.721Z,65.74
2023-05-08T08:03:16.712Z,71.06
2023-05-08T08:04:16.647Z,66.55
2023-05-08T08:05:16.762Z,66.39
2023-05-08T08:06:16.667Z,64.45
2023-05-08T08:07:16.610Z,68.64
2023-05-08T08:08:16.595Z,69.29
2023-05-08T08:09:16.595Z,66.06
2023-05-08T08:10:16.575Z,66.55
2023-05-08T08:11:16.653Z,65.26
2023-05-08T08:12:16.553Z,66.71
2023-05-08T08:13:16.565Z,65.58
2023-05-08T08:14:16.556Z,63.16
2023-05-08T08:15:16.535Z,67.03
2023-05-08T08:16:16.621Z,65.90
2023-05-08T08:17:16.551Z,66.55
2023-05-08T08:18:16.525Z,67.51
2023-05-08T08:19:16.484Z,66.71
2023-05-08T08:20:16.493Z,71.54
2023-05-08T08:21:16.472Z,67.84
2023-05-08T08:22:16.458Z,66.06
2023-05-08T08:23:16.444Z,66.06
2023-05-08T08:24:16.442Z,65.26
2023-05-08T08:25:16.442Z,64.78
2023-05-08T08:26:16.422Z,68.48
2023-05-08T08:27:16.438Z,67.68
2023-05-08T08:28:16.407Z,65.74
2023-05-08T08:29:16.420Z,64.94
2023-05-08T08:30:18.263Z,66.87
2023-05-08T08:31:17.417Z,69.61
2023-05-08T08:32:16.435Z,68.00
2023-05-08T08:33:18.798Z,65.58
2023-05-08T08:34:17.358Z,66.71
2023-05-08T08:35:17.123Z,68.00
2023-05-08T08:36:16.313Z,68.00
2023-05-08T08:37:16.302Z,69.61
2023-05-08T08:38:16.301Z,69.29
2023-05-08T08:39:16.303Z,67.84
2023-05-08T08:40:16.289Z,69.29
2023-05-08T08:41:16.300Z,67.03
2023-05-08T08:42:16.275Z,68.48
2023-05-08T08:43:16.261Z,69.29
2023-05-08T08:44:16.278Z,68.64
2023-05-08T08:45:16.568Z,69.13
2023-05-08T08:46:16.324Z,65.90
2023-05-08T08:47:16.216Z,67.68
2023-05-08T08:48:16.294Z,67.84
2023-05-08T08:49:16.209Z,66.23
2023-05-08T08:50:16.201Z,67.51
2023-05-08T08:51:16.187Z,65.90
2023-05-08T08:52:16.193Z,67.03
2023-05-08T08:53:16.173Z,66.55
2023-05-08T08:54:16.160Z,67.03
2023-05-08T08:55:16.138Z,68.96
2023-05-08T08:56:16.126Z,69.45
2023-05-08T08:57:16.200Z,67.68
2023-05-08T08:58:16.141Z,66.87
2023-05-08T08:59:16.105Z,66.39
2023-05-08T09:00:29.712Z,66.23
2023-05-08T09:01:16.083Z,66.87
2023-05-08T09:02:16.145Z,66.23
2023-05-08T09:03:16.214Z,66.55
2023-05-08T09:04:16.321Z,70.42
2023-05-08T09:05:16.137Z,67.68
2023-05-08T09:06:16.067Z,67.51
2023-05-08T09:07:16.045Z,68.48
2023-05-08T09:08:16.034Z,67.51
2023-05-08T09:09:16.022Z,67.68
2023-05-08T09:10:15.999Z,68.80
2023-05-08T09:11:15.989Z,67.35
2023-05-08T09:12:15.981Z,65.90
2023-05-08T09:13:17.350Z,68.96
2023-05-08T09:14:15.966Z,70.25
2023-05-08T09:15:16.091Z,66.06
2023-05-08T09:16:15.965Z,65.26
2023-05-08T09:17:15.936Z,67.19
2023-05-08T09:18:15.929Z,64.94
2023-05-08T09:19:15.931Z,63.65
2023-05-08T09:20:16.216Z,68.48
2023-05-08T09:21:15.916Z,68.48
2023-05-08T09:22:15.922Z,66.87
2023-05-08T09:23:15.920Z,67.35
2023-05-08T09:24:15.888Z,68.00
2023-05-08T09:25:16.060Z,66.71
2023-05-08T09:26:15.843Z,65.90
2023-05-08T09:27:15.838Z,70.09
2023-05-08T09:28:15.823Z,67.51
2023-05-08T09:29:15.811Z,66.39
2023-05-08T09:30:15.818Z,66.06
2023-05-08T09:31:15.811Z,65.90
2023-05-08T09:32:16.843Z,66.55
2023-05-08T09:33:15.825Z,66.06
2023-05-08T09:34:15.796Z,69.29
2023-05-08T09:35:16.135Z,65.10
2023-05-08T09:36:15.847Z,66.23
2023-05-08T09:37:15.740Z,66.23
2023-05-08T09:38:16.720Z,66.23
2023-05-08T09:39:15.726Z,68.16
2023-05-08T09:40:15.693Z,67.19
2023-05-08T09:41:15.965Z,63.81
2023-05-08T09:42:15.708Z,66.23
2023-05-08T09:43:15.671Z,65.26
2023-05-08T09:44:15.655Z,62.68
2023-05-08T09:45:15.755Z,62.52
2023-05-08T09:46:15.708Z,68.80
2023-05-08T09:47:15.673Z,67.35
2023-05-08T09:48:15.633Z,64.61
2023-05-08T09:49:15.620Z,63.49
2023-05-08T09:50:15.757Z,65.26
2023-05-08T09:51:15.592Z,66.39
2023-05-08T09:52:15.749Z,65.42
2023-05-08T09:53:15.604Z,63.65
2023-05-08T09:54:15.573Z,65.58
2023-05-08T09:55:15.570Z,63.16
2023-05-08T09:56:15.558Z,62.36
2023-05-08T09:57:15.572Z,64.29
2023-05-08T09:58:15.543Z,65.26
2023-05-08T09:59:15.518Z,64.45
2023-05-08T10:00:15.725Z,63.00
2023-05-08T10:01:15.510Z,65.74
2023-05-08T10:02:15.509Z,61.71
2023-05-08T10:03:15.527Z,63.49
2023-05-08T10:04:15.503Z,62.20
2023-05-08T10:05:15.486Z,63.65
2023-05-08T10:06:15.467Z,63.16
2023-05-08T10:07:15.488Z,66.06
2023-05-08T10:08:15.516Z,65.26
2023-05-08T10:09:15.425Z,66.23
2023-05-08T10:10:15.483Z,67.03
2023-05-08T10:11:15.398Z,67.03
2023-05-08T10:12:15.413Z,65.58
2023-05-08T10:13:15.441Z,66.23
2023-05-08T10:14:15.380Z,65.26
2023-05-08T10:15:15.400Z,63.49
2023-05-08T10:16:15.399Z,61.87
2023-05-08T10:17:15.388Z,64.61
2023-05-08T10:18:15.335Z,65.26
2023-05-08T10:19:15.324Z,63.65
2023-05-08T10:20:15.470Z,63.81
2023-05-08T10:21:36.362Z,63.97
2023-05-08T10:22:15.294Z,65.58
2023-05-08T10:23:15.289Z,65.26
2023-05-08T10:24:15.375Z,67.03
2023-05-08T10:25:15.269Z,62.52
2023-05-08T10:26:15.272Z,64.78
2023-05-08T10:27:15.265Z,66.23
2023-05-08T10:28:15.244Z,66.06
2023-05-08T10:29:15.250Z,63.33
2023-05-08T10:30:15.617Z,64.45
2023-05-08T10:31:15.277Z,64.78
2023-05-08T10:32:15.196Z,62.68
2023-05-08T10:33:15.191Z,64.29
2023-05-08T10:34:15.176Z,62.36
2023-05-08T10:35:15.207Z,62.84
2023-05-08T10:36:15.159Z,63.33
2023-05-08T10:37:15.155Z,62.04
2023-05-08T10:38:15.154Z,65.74
2023-05-08T10:39:15.130Z,60.75
2023-05-08T10:40:15.470Z,63.65
2023-05-08T10:41:15.119Z,61.87
2023-05-08T10:42:15.116Z,63.33
2023-05-08T10:43:15.114Z,64.29
2023-05-08T10:44:15.126Z,62.20
2023-05-08T10:45:15.105Z,63.65
2023-05-08T10:46:15.175Z,62.20
2023-05-08T10:47:15.067Z,62.04
2023-05-08T10:48:15.041Z,63.16
2023-05-08T10:49:15.068Z,63.33
2023-05-08T10:50:15.382Z,60.91
2023-05-08T10:51:15.024Z,61.07
2023-05-08T10:52:15.004Z,60.26
2023-05-08T10:53:15.009Z,61.23
2023-05-08T10:54:15.032Z,63.97
2023-05-08T10:55:14.981Z,65.42
2023-05-08T10:56:14.968Z,66.39
2023-05-08T10:57:15.008Z,65.74
2023-05-08T10:58:15.016Z,60.26
2023-05-08T10:59:14.949Z,65.58
2023-05-08T11:00:16.149Z,63.00
2023-05-08T11:01:15.005Z,63.16
2023-05-08T11:02:14.940Z,63.81
2023-05-08T11:03:29.903Z,60.91
2023-05-08T11:04:17.019Z,61.71
2023-05-08T11:05:14.889Z,64.45
2023-05-08T11:06:14.876Z,61.71
2023-05-08T11:07:14.862Z,62.52
2023-05-08T11:08:14.874Z,62.68
2023-05-08T11:09:14.835Z,63.49
2023-05-08T11:10:14.922Z,63.49
2023-05-08T11:11:14.817Z,64.94
2023-05-08T11:12:14.870Z,61.55
2023-05-08T11:13:14.836Z,61.71
2023-05-08T11:14:14.783Z,65.10
2023-05-08T11:15:14.772Z,63.49
2023-05-08T11:16:14.791Z,63.97
2023-05-08T11:17:14.773Z,62.36
2023-05-08T11:18:14.797Z,63.49
2023-05-08T11:19:14.774Z,63.16
2023-05-08T11:20:14.889Z,62.36
2023-05-08T11:21:14.709Z,62.04
2023-05-08T11:22:14.721Z,62.84
2023-05-08T11:23:14.690Z,62.04
2023-05-08T11:24:14.679Z,63.33
2023-05-08T11:25:14.680Z,63.00
2023-05-08T11:26:14.697Z,61.39
2023-05-08T11:27:14.673Z,59.14
2023-05-08T11:28:14.676Z,63.16
2023-05-08T11:29:14.626Z,61.87
2023-05-08T11:30:14.797Z,65.74
2023-05-08T11:31:14.689Z,63.81
2023-05-08T11:32:14.613Z,61.55
2023-05-08T11:33:14.607Z,63.81
2023-05-08T11:34:14.585Z,61.87
2023-05-08T11:35:14.582Z,61.87
2023-05-08T11:36:14.583Z,61.07
2023-05-08T11:37:14.571Z,62.20
2023-05-08T11:38:14.547Z,63.33
2023-05-08T11:39:14.551Z,64.94
2023-05-08T11:40:14.714Z,63.65
2023-05-08T11:41:14.523Z,63.65
2023-05-08T11:42:14.499Z,65.58
2023-05-08T11:43:14.495Z,63.16
2023-05-08T11:44:15.196Z,63.49
2023-05-08T11:45:14.501Z,63.00
2023-05-08T11:46:14.501Z,60.59
2023-05-08T11:47:14.483Z,62.52
2023-05-08T11:48:14.455Z,63.65
2023-05-08T11:49:14.537Z,65.90
2023-05-08T11:50:14.680Z,64.94
2023-05-08T11:51:14.426Z,62.68
2023-05-08T11:52:14.411Z,62.52
2023-05-08T11:53:14.389Z,64.61
2023-05-08T11:54:15.414Z,64.29
2023-05-08T11:55:14.381Z,64.61
2023-05-08T11:56:14.371Z,62.68
2023-05-08T11:57:14.357Z,63.49
2023-05-08T11:58:14.352Z,62.20
2023-05-08T11:59:14.398Z,63.65
2023-05-08T12:00:14.538Z,61.55
2023-05-08T12:01:14.359Z,59.14
2023-05-08T12:02:14.347Z,58.33
2023-05-08T12:03:14.512Z,58.65
2023-05-08T12:04:14.430Z,63.00
2023-05-08T12:05:14.370Z,60.42
2023-05-08T12:06:14.269Z,60.59
2023-05-08T12:07:14.282Z,59.30
2023-05-08T12:08:14.292Z,60.91
2023-05-08T12:09:14.243Z,61.87
2023-05-08T12:10:14.721Z,61.87
2023-05-08T12:11:14.231Z,61.23
2023-05-08T12:12:14.207Z,60.26
2023-05-08T12:13:14.254Z,59.14
2023-05-08T12:14:14.197Z,59.78
2023-05-08T12:15:14.189Z,62.20
2023-05-08T12:16:14.173Z,63.49
2023-05-08T12:17:14.268Z,64.45
2023-05-08T12:18:14.212Z,60.10
2023-05-08T12:19:14.209Z,61.39
2023-05-08T12:20:14.545Z,61.39
2023-05-08T12:21:14.141Z,60.91
2023-05-08T12:22:14.140Z,61.23
2023-05-08T12:23:14.102Z,59.62
2023-05-08T12:24:14.130Z,55.75
2023-05-08T12:25:14.320Z,55.91
2023-05-08T12:26:14.063Z,56.07
2023-05-08T12:27:14.097Z,57.04
2023-05-08T12:28:14.046Z,57.69
2023-05-08T12:29:14.081Z,59.62
2023-05-08T12:30:14.418Z,60.42
2023-05-08T12:31:14.156Z,60.75
2023-05-08T12:32:14.032Z,61.23
2023-05-08T12:33:14.022Z,62.04
2023-05-08T12:34:13.988Z,62.52
2023-05-08T12:35:14.001Z,61.71
2023-05-08T12:36:13.998Z,60.91
2023-05-08T12:37:13.977Z,58.97
2023-05-08T12:38:13.981Z,62.52
2023-05-08T12:39:14.086Z,61.07
2023-05-08T12:40:14.160Z,60.10
2023-05-08T12:41:13.954Z,59.62
2023-05-08T12:42:13.929Z,58.81
2023-05-08T12:43:13.922Z,57.52
2023-05-08T12:44:13.985Z,58.49
2023-05-08T12:45:13.951Z,58.01
2023-05-08T12:46:13.951Z,61.23
2023-05-08T12:47:13.876Z,60.10
2023-05-08T12:48:14.028Z,61.23
2023-05-08T12:49:13.847Z,63.00
2023-05-08T12:50:14.091Z,66.39
2023-05-08T12:51:14.833Z,59.46
2023-05-08T12:52:13.831Z,62.52